Terminal Aerodrome Forecast
Issued by NWS Grand Forks, ND

Home | Current Version | Previous Version | Graphics & Text | Print | Product List | Glossary On
Versions: 1 2 3 4 5 6 7 8 9 10 11 12 13 14 15 16 17 18 19 20 21 22 23 24
000
FTUS43 KFGF 241120
TAFGFK
TAF
KGFK 241120Z 2412/2512 08013KT P6SM SCT020
      TEMPO 2412/2415 BKN015
     FM241500 08014KT 2SM -RA BR OVC015
     FM241600 08015G23KT 3SM BR OVC015
      TEMPO 2416/2420 2SM -RA BR OVC003
     FM242000 04008KT 3SM BR OVC008
     FM242200 35014KT P6SM OVC008
     FM250000 34015G24KT P6SM OVC003
     FM250800 35015G23KT P6SM OVC008=

USA.gov is the U.S. government's official web portal to all federal, state and local government web resources and services.